createdAt,value
2019-05-22T00:00:51.971Z,94.21
2019-05-22T00:02:04.695Z,94.49
2019-05-22T00:02:51.961Z,94.59
2019-05-22T00:03:51.984Z,93.92
2019-05-22T00:04:51.948Z,94.02
2019-05-22T00:05:51.939Z,93.92
2019-05-22T00:06:51.935Z,94.02
2019-05-22T00:07:51.929Z,94.02
2019-05-22T00:08:51.925Z,94.02
2019-05-22T00:09:51.923Z,94.02
2019-05-22T00:10:51.911Z,94.31
2019-05-22T00:11:51.927Z,93.92
2019-05-22T00:12:51.667Z,94.02
2019-05-22T00:13:51.899Z,93.92
2019-05-22T00:14:51.896Z,94.21
2019-05-22T00:15:51.889Z,94.21
2019-05-22T00:16:51.884Z,94.02
2019-05-22T00:17:51.885Z,94.31
2019-05-22T00:18:51.874Z,94.21
2019-05-22T00:19:51.926Z,94.4
2019-05-22T00:21:04.659Z,94.12
2019-05-22T00:21:51.858Z,93.82
2019-05-22T00:22:51.854Z,93.73
2019-05-22T00:23:51.847Z,93.82
2019-05-22T00:24:51.874Z,94.4
2019-05-22T00:25:51.844Z,93.82
2019-05-22T00:26:51.894Z,93.82
2019-05-22T00:27:51.834Z,93.82
2019-05-22T00:28:51.824Z,93.92
2019-05-22T00:29:51.817Z,93.82
2019-05-22T00:30:51.818Z,93.63
2019-05-22T00:31:51.808Z,94.12
2019-05-22T00:32:51.803Z,93.92
2019-05-22T00:33:51.802Z,93.92
2019-05-22T00:34:51.794Z,93.92
2019-05-22T00:35:51.846Z,93.63
2019-05-22T00:36:51.782Z,93.82
2019-05-22T00:37:51.777Z,93.92
2019-05-22T00:38:51.773Z,93.82
2019-05-22T00:39:51.848Z,93.82
2019-05-22T00:40:51.763Z,93.82
2019-05-22T00:41:51.760Z,93.82
2019-05-22T00:43:03.222Z,93.82
2019-05-22T00:43:51.749Z,93.82
2019-05-22T00:44:51.744Z,93.82
2019-05-22T00:45:51.739Z,93.82
2019-05-22T00:46:51.734Z,93.82
2019-05-22T00:47:51.729Z,94.12
2019-05-22T00:49:04.541Z,94.02
2019-05-22T00:49:51.737Z,94.02
2019-05-22T00:50:51.718Z,93.73
2019-05-22T00:51:51.761Z,93.82
2019-05-22T00:52:51.706Z,94.02
2019-05-22T00:53:51.710Z,93.92
2019-05-22T00:54:51.694Z,93.92
2019-05-22T00:55:51.691Z,93.92
2019-05-22T00:56:51.684Z,94.02
2019-05-22T00:57:51.681Z,93.73
2019-05-22T00:58:51.679Z,93.82
2019-05-22T00:59:51.669Z,93.92
2019-05-22T01:00:51.669Z,93.63
2019-05-22T01:01:51.658Z,93.92
2019-05-22T01:02:51.659Z,93.54
2019-05-22T01:04:51.652Z,94.12
2019-05-22T01:05:51.640Z,93.54
2019-05-22T01:06:51.841Z,93.54
2019-05-22T01:07:51.629Z,93.54
2019-05-22T01:08:51.623Z,93.54
2019-05-22T01:09:51.698Z,93.73
2019-05-22T01:10:51.618Z,93.92
2019-05-22T01:11:51.614Z,93.73
2019-05-22T01:12:51.606Z,93.73
2019-05-22T01:13:51.607Z,93.54
2019-05-22T01:14:51.590Z,93.68
2019-05-22T01:15:51.344Z,93.97
2019-05-22T01:17:04.314Z,93.97
2019-05-22T01:17:51.618Z,93.78
2019-05-22T01:18:51.572Z,94.35
2019-05-22T01:19:51.580Z,94.45
2019-05-22T01:20:51.562Z,93.97
2019-05-22T01:21:51.560Z,94.45
2019-05-22T01:22:51.557Z,94.17
2019-05-22T01:23:51.555Z,94.45
2019-05-22T01:24:51.296Z,94.07
2019-05-22T01:25:51.295Z,94.35
2019-05-22T01:26:51.530Z,94.35
2019-05-22T01:27:51.525Z,94.64
2019-05-22T01:28:51.518Z,94.17
2019-05-22T01:29:51.514Z,94.45
2019-05-22T01:30:51.265Z,94.64
2019-05-22T01:31:51.503Z,94.54
2019-05-22T01:32:51.534Z,94.54
2019-05-22T01:33:51.494Z,94.54
2019-05-22T01:34:51.494Z,94.26
2019-05-22T01:35:51.238Z,94.45
2019-05-22T01:36:51.479Z,94.54
2019-05-22T01:37:51.481Z,94.45
2019-05-22T01:38:51.471Z,94.64
2019-05-22T01:39:51.462Z,94.64
2019-05-22T01:40:51.469Z,94.54
2019-05-22T01:41:51.460Z,94.26
2019-05-22T01:42:51.473Z,94.26
2019-05-22T01:43:51.198Z,94.17
2019-05-22T01:45:06.894Z,94.26
2019-05-22T01:45:51.430Z,94.26
2019-05-22T01:46:51.427Z,94.54
2019-05-22T01:47:51.420Z,94.45
2019-05-22T01:48:51.416Z,94.12
2019-05-22T01:49:51.415Z,94.17
2019-05-22T01:50:51.164Z,94.17
2019-05-22T01:51:51.398Z,94.26
2019-05-22T01:52:51.414Z,94.26
2019-05-22T01:54:04.222Z,94.45
2019-05-22T01:54:51.391Z,94.45
2019-05-22T01:55:51.395Z,94.54
2019-05-22T01:56:51.372Z,94.45
2019-05-22T01:57:51.368Z,94.4
2019-05-22T01:58:51.362Z,94.26
2019-05-22T01:59:51.357Z,94.31
2019-05-22T02:00:51.111Z,94.4
2019-05-22T02:01:51.350Z,94.4
2019-05-22T02:02:51.342Z,94.59
2019-05-22T02:03:51.336Z,94.4
2019-05-22T02:05:04.064Z,94.31
2019-05-22T02:06:04.150Z,94.12
2019-05-22T02:06:51.322Z,94.31
2019-05-22T02:07:51.313Z,94.31
2019-05-22T02:08:51.310Z,94.31
2019-05-22T02:09:51.302Z,94.5
2019-05-22T02:10:51.303Z,94.31
2019-05-22T02:11:51.289Z,94.5
2019-05-22T02:12:51.290Z,94.4
2019-05-22T02:13:51.279Z,94.4
2019-05-22T02:14:51.273Z,94.5
2019-05-22T02:15:51.024Z,94.59
2019-05-22T02:16:59.541Z,94.69
2019-05-22T02:17:51.258Z,94.89
2019-05-22T02:18:51.254Z,94.5
2019-05-22T02:19:51.250Z,94.59
2019-05-22T02:20:50.998Z,94.5
2019-05-22T02:21:51.240Z,94.31
2019-05-22T02:22:51.234Z,94.89
2019-05-22T02:23:51.256Z,94.89
2019-05-22T02:24:51.258Z,94.5
2019-05-22T02:25:51.215Z,94.59
2019-05-22T02:26:51.211Z,94.59
2019-05-22T02:27:51.395Z,94.69
2019-05-22T02:28:51.197Z,94.98
2019-05-22T02:29:51.194Z,94.79
2019-05-22T02:30:51.210Z,94.59
2019-05-22T02:31:52.803Z,94.59
2019-05-22T02:32:51.184Z,94.89
2019-05-22T02:33:51.168Z,95.17
2019-05-22T02:34:51.164Z,95.31
2019-05-22T02:35:51.162Z,95.17
2019-05-22T02:36:50.912Z,95.07
2019-05-22T02:37:51.149Z,94.93
2019-05-22T02:38:57.411Z,94.74
2019-05-22T02:39:51.138Z,95.31
2019-05-22T02:40:51.133Z,94.84
2019-05-22T02:41:51.136Z,95.22
2019-05-22T02:42:51.129Z,95.22
2019-05-22T02:43:51.115Z,94.89
2019-05-22T02:44:50.957Z,95.12
2019-05-22T02:45:50.862Z,95.12
2019-05-22T02:46:51.102Z,95.31
2019-05-22T02:47:51.094Z,94.93
2019-05-22T02:48:51.115Z,95.03
2019-05-22T02:49:51.099Z,95.12
2019-05-22T02:50:50.828Z,95.22
2019-05-22T02:51:51.072Z,95.22
2019-05-22T02:52:50.841Z,95.12
2019-05-22T02:53:51.054Z,94.93
2019-05-22T02:54:51.053Z,95.03
2019-05-22T02:56:03.783Z,95.12
2019-05-22T02:56:51.045Z,95.03
2019-05-22T02:57:51.036Z,95.03
2019-05-22T02:59:03.759Z,94.93
2019-05-22T03:00:03.957Z,95.03
2019-05-22T03:00:50.779Z,95.22
2019-05-22T03:01:51.019Z,95.22
2019-05-22T03:02:51.071Z,95.12
2019-05-22T03:03:51.000Z,95.22
2019-05-22T03:04:51.000Z,94.84
2019-05-22T03:05:50.987Z,95.22
2019-05-22T03:06:50.980Z,95.41
2019-05-22T03:07:50.983Z,95.51
2019-05-22T03:08:50.979Z,95.41
2019-05-22T03:09:50.964Z,95.31
2019-05-22T03:10:50.824Z,95.31
2019-05-22T03:11:52.124Z,95.6
2019-05-22T03:12:51.052Z,95.41
2019-05-22T03:13:50.942Z,95.6
2019-05-22T03:14:50.944Z,95.12
2019-05-22T03:15:50.931Z,95.36
2019-05-22T03:16:50.922Z,95.31
2019-05-22T03:17:50.920Z,95.51
2019-05-22T03:19:10.183Z,95.31
2019-05-22T03:19:50.905Z,95.31
2019-05-22T03:20:50.969Z,95.7
2019-05-22T03:21:50.894Z,95.51
2019-05-22T03:22:50.897Z,95.7
2019-05-22T03:23:50.880Z,95.27
2019-05-22T03:24:50.876Z,95.31
2019-05-22T03:25:50.870Z,95.51
2019-05-22T03:26:50.864Z,95.6
2019-05-22T03:27:58.259Z,95.31
2019-05-22T03:28:50.853Z,95.31
2019-05-22T03:29:50.850Z,95.41
2019-05-22T03:30:50.626Z,95.65
2019-05-22T03:31:50.854Z,95.51
2019-05-22T03:33:03.694Z,95.41
2019-05-22T03:33:50.844Z,95.36
2019-05-22T03:34:50.854Z,95.46
2019-05-22T03:35:50.599Z,96.27
2019-05-22T03:36:50.806Z,96.03
2019-05-22T03:37:50.818Z,96.13
2019-05-22T03:38:50.817Z,96.03
2019-05-22T03:39:50.793Z,96.32
2019-05-22T03:40:50.804Z,96.32
2019-05-22T03:41:50.776Z,95.56
2019-05-22T03:42:50.771Z,95.65
2019-05-22T03:43:50.823Z,95.75
2019-05-22T03:44:50.756Z,95.65
2019-05-22T03:45:50.767Z,95.84
2019-05-22T03:46:50.758Z,95.94
2019-05-22T03:47:50.745Z,94.98
2019-05-22T03:48:50.732Z,94.69
2019-05-22T03:49:50.726Z,94.6
2019-05-22T03:50:50.720Z,95.22
2019-05-22T03:51:50.740Z,94.93
2019-05-22T03:52:50.717Z,94.65
2019-05-22T03:53:50.705Z,94.45
2019-05-22T03:54:50.796Z,94.36
2019-05-22T03:55:50.447Z,94.55
2019-05-22T03:56:50.691Z,94.07
2019-05-22T03:57:50.762Z,94.07
2019-05-22T03:58:50.677Z,93.79
2019-05-22T03:59:50.663Z,94.26
2019-05-22T04:00:50.674Z,93.88
2019-05-22T04:01:50.686Z,94.07
2019-05-22T04:02:50.645Z,94.07
2019-05-22T04:03:50.641Z,93.98
2019-05-22T04:04:50.643Z,93.5
2019-05-22T04:05:50.631Z,93.3
2019-05-22T04:06:50.628Z,93.69
2019-05-22T04:07:50.624Z,93.5
2019-05-22T04:08:50.608Z,93.4
2019-05-22T04:09:50.624Z,93.12
2019-05-22T04:10:50.598Z,93.12
2019-05-22T04:11:50.594Z,92.92
2019-05-22T04:12:50.351Z,92.73
2019-05-22T04:13:57.704Z,92.92
2019-05-22T04:14:50.595Z,92.16
2019-05-22T04:15:50.328Z,92.35
2019-05-22T04:16:50.318Z,92.44
2019-05-22T04:17:50.556Z,92.35
2019-05-22T04:18:50.544Z,92.35
2019-05-22T04:19:53.442Z,91.87
2019-05-22T04:20:50.532Z,92.44
2019-05-22T04:21:50.526Z,92.54
2019-05-22T04:22:50.528Z,91.39
2019-05-22T04:23:50.515Z,91.3
2019-05-22T04:24:50.511Z,91.01
2019-05-22T04:25:53.253Z,91.01
2019-05-22T04:26:50.505Z,90.91
2019-05-22T04:27:50.489Z,91.16
2019-05-22T04:28:50.488Z,90.48
2019-05-22T04:29:50.483Z,90.67
2019-05-22T04:30:50.244Z,90.48
2019-05-22T04:31:50.469Z,90.1
2019-05-22T04:32:50.458Z,89.91
2019-05-22T04:33:50.463Z,90.3
2019-05-22T04:34:50.446Z,90.2
2019-05-22T04:35:50.192Z,90.48
2019-05-22T04:36:50.429Z,90.3
2019-05-22T04:37:50.464Z,89.72
2019-05-22T04:38:50.417Z,89.62
2019-05-22T04:39:50.423Z,88.76
2019-05-22T04:40:50.404Z,89.29
2019-05-22T04:41:50.407Z,88.29
2019-05-22T04:42:50.392Z,88.29
2019-05-22T04:43:50.388Z,87.9
2019-05-22T04:44:50.378Z,87.52
2019-05-22T04:45:50.372Z,87.81
2019-05-22T04:46:50.365Z,87.56
2019-05-22T04:47:50.358Z,87.23
2019-05-22T04:48:50.353Z,87.43
2019-05-22T04:50:08.658Z,87.43
2019-05-22T04:50:50.099Z,87.04
2019-05-22T04:51:50.334Z,87.14
2019-05-22T04:52:50.082Z,87.14
2019-05-22T04:53:50.333Z,87.33
2019-05-22T04:54:52.529Z,87.33
2019-05-22T04:55:50.313Z,86.66
2019-05-22T04:56:50.299Z,87.23
2019-05-22T04:57:50.303Z,87.33
2019-05-22T04:58:50.288Z,86.94
2019-05-22T04:59:50.280Z,86.94
2019-05-22T05:00:50.350Z,87.04
2019-05-22T05:01:50.267Z,87.04
2019-05-22T05:02:50.260Z,87.04
2019-05-22T05:03:50.259Z,86.57
2019-05-22T05:04:50.255Z,87.14
2019-05-22T05:05:50.244Z,87.04
2019-05-22T05:06:50.245Z,86.57
2019-05-22T05:07:50.225Z,87
2019-05-22T05:08:50.220Z,87.04
2019-05-22T05:10:50.207Z,86.9
2019-05-22T05:11:50.198Z,86.94
2019-05-22T05:12:50.194Z,87.09
2019-05-22T05:13:50.187Z,87
2019-05-22T05:14:50.180Z,86.85
2019-05-22T05:15:50.238Z,86.94
2019-05-22T05:16:50.164Z,86.57
2019-05-22T05:17:50.156Z,86.47
2019-05-22T05:18:50.159Z,86.47
2019-05-22T05:19:50.144Z,86.61
2019-05-22T05:20:50.137Z,86.43
2019-05-22T05:21:50.168Z,86.43
2019-05-22T05:22:50.125Z,86.37
2019-05-22T05:23:50.115Z,86.43
2019-05-22T05:24:50.113Z,86.43
2019-05-22T05:25:50.102Z,86.43
2019-05-22T05:26:50.098Z,86.33
2019-05-22T05:27:50.098Z,86.43
2019-05-22T05:28:50.088Z,86.52
2019-05-22T05:29:50.078Z,86.52
2019-05-22T05:30:50.070Z,86.61
2019-05-22T05:31:50.065Z,86.61
2019-05-22T05:32:50.059Z,86.61
2019-05-22T05:33:50.059Z,86.43
2019-05-22T05:34:50.047Z,86.52
2019-05-22T05:35:50.038Z,86.61
2019-05-22T05:36:50.031Z,86.61
2019-05-22T05:37:50.022Z,86.14
2019-05-22T05:38:50.017Z,86.04
2019-05-22T05:39:50.016Z,85.94
2019-05-22T05:40:50.089Z,86.14
2019-05-22T05:41:49.998Z,86.04
2019-05-22T05:42:50.004Z,86.04
2019-05-22T05:43:49.983Z,86.14
2019-05-22T05:44:49.985Z,85.94
2019-05-22T05:45:49.981Z,86.14
2019-05-22T05:46:49.965Z,85.75
2019-05-22T05:47:49.959Z,86.14
2019-05-22T05:48:49.963Z,86.14
2019-05-22T05:49:49.949Z,86.14
2019-05-22T05:50:49.936Z,86.28
2019-05-22T05:51:49.929Z,85.99
2019-05-22T05:52:49.926Z,85.8
2019-05-22T05:53:49.919Z,85.8
2019-05-22T05:54:49.911Z,85.71
2019-05-22T05:55:49.904Z,85.99
2019-05-22T05:56:49.953Z,85.51
2019-05-22T05:57:49.897Z,85.61
2019-05-22T05:58:49.885Z,85.8
2019-05-22T05:59:49.884Z,85.22
2019-05-22T06:00:49.874Z,85.51
2019-05-22T06:01:49.873Z,85.32
2019-05-22T06:02:58.756Z,85.32
2019-05-22T06:03:49.853Z,85.22
2019-05-22T06:04:49.850Z,85.51
2019-05-22T06:05:49.844Z,85.61
2019-05-22T06:06:49.877Z,85.22
2019-05-22T06:07:49.825Z,85.41
2019-05-22T06:08:49.820Z,85.32
2019-05-22T06:09:49.830Z,85.22
2019-05-22T06:10:49.822Z,85.32
2019-05-22T06:11:49.805Z,85.41
2019-05-22T06:12:49.820Z,85.18
2019-05-22T06:13:49.788Z,85.18
2019-05-22T06:14:49.783Z,85.38
2019-05-22T06:15:50.483Z,85.28
2019-05-22T06:16:49.770Z,85.57
2019-05-22T06:17:49.766Z,85.28
2019-05-22T06:18:49.759Z,85.66
2019-05-22T06:19:49.756Z,85.66
2019-05-22T06:21:05.696Z,85.47
2019-05-22T06:21:49.741Z,85.38
2019-05-22T06:22:49.741Z,85.57
2019-05-22T06:23:49.726Z,85.71
2019-05-22T06:24:49.717Z,85.22
2019-05-22T06:25:49.744Z,85.75
2019-05-22T06:26:49.706Z,85.71
2019-05-22T06:27:49.697Z,85.22
2019-05-22T06:28:49.455Z,85.28
2019-05-22T06:29:49.689Z,85.28
2019-05-22T06:30:49.679Z,85.28
2019-05-22T06:31:49.675Z,84.89
2019-05-22T06:32:49.430Z,85.18
2019-05-22T06:33:49.665Z,85.57
2019-05-22T06:34:49.658Z,85.38
2019-05-22T06:35:49.649Z,84.99
2019-05-22T06:36:49.642Z,85.28
2019-05-22T06:37:49.647Z,85.18
2019-05-22T06:38:49.631Z,84.99
2019-05-22T06:39:49.624Z,84.99
2019-05-22T06:40:49.619Z,85.28
2019-05-22T06:41:49.623Z,85.38
2019-05-22T06:42:49.625Z,85.09
2019-05-22T06:43:49.618Z,85.38
2019-05-22T06:44:49.588Z,85.28
2019-05-22T06:45:49.585Z,85.28
2019-05-22T06:46:49.596Z,85.38
2019-05-22T06:47:49.569Z,85.28
2019-05-22T06:48:49.562Z,84.89
2019-05-22T06:49:49.564Z,85.09
2019-05-22T06:50:51.710Z,85.09
2019-05-22T06:51:49.544Z,85.09
2019-05-22T06:52:49.537Z,85.18
2019-05-22T06:53:49.527Z,84.99
2019-05-22T06:54:49.528Z,85.28
2019-05-22T06:55:49.515Z,85.28
2019-05-22T06:56:49.513Z,85.09
2019-05-22T06:57:49.503Z,84.99
2019-05-22T06:58:49.503Z,85.28
2019-05-22T06:59:49.500Z,85.18
2019-05-22T07:00:49.483Z,84.99
2019-05-22T07:01:49.477Z,84.8
2019-05-22T07:02:49.474Z,85.09
2019-05-22T07:03:49.462Z,85.18
2019-05-22T07:04:49.469Z,85.09
2019-05-22T07:05:49.450Z,85.18
2019-05-22T07:06:49.443Z,84.99
2019-05-22T07:07:49.436Z,85.09
2019-05-22T07:08:49.431Z,84.8
2019-05-22T07:09:49.427Z,84.99
2019-05-22T07:10:49.419Z,85.18
2019-05-22T07:11:49.415Z,85.05
2019-05-22T07:12:53.087Z,85.28
2019-05-22T07:13:49.403Z,85.09
2019-05-22T07:14:49.394Z,85.18
2019-05-22T07:15:49.402Z,84.99
2019-05-22T07:16:49.377Z,84.32
2019-05-22T07:17:49.374Z,84.99
2019-05-22T07:18:49.363Z,84.99
2019-05-22T07:19:49.356Z,85.09
2019-05-22T07:20:49.388Z,85.28
2019-05-22T07:21:49.343Z,85.28
2019-05-22T07:22:49.337Z,85.09
2019-05-22T07:23:49.331Z,84.89
2019-05-22T07:24:49.323Z,84.8
2019-05-22T07:25:49.321Z,85.38
2019-05-22T07:26:49.307Z,84.89
2019-05-22T07:27:49.308Z,84.99
2019-05-22T07:28:49.294Z,84.8
2019-05-22T07:29:49.288Z,84.61
2019-05-22T07:30:49.284Z,84.52
2019-05-22T07:31:49.280Z,84.7
2019-05-22T07:32:49.026Z,85.09
2019-05-22T07:33:49.261Z,84.61
2019-05-22T07:34:49.255Z,84.89
2019-05-22T07:36:15.513Z,85.09
2019-05-22T07:36:49.244Z,84.8
2019-05-22T07:37:49.240Z,84.32
2019-05-22T07:38:49.235Z,84.23
2019-05-22T07:39:49.231Z,84.13
2019-05-22T07:40:53.024Z,84.03
2019-05-22T07:41:49.223Z,84.23
2019-05-22T07:42:49.221Z,84.23
2019-05-22T07:43:49.194Z,84.99
2019-05-22T07:44:49.188Z,84.99
2019-05-22T07:45:49.229Z,84.23
2019-05-22T07:46:49.173Z,84.61
2019-05-22T07:47:48.925Z,84.61
2019-05-22T07:48:49.167Z,84.52
2019-05-22T07:49:49.164Z,84.32
2019-05-22T07:50:51.534Z,84.42
2019-05-22T07:52:01.684Z,84.89
2019-05-22T07:52:49.144Z,85.85
2019-05-22T07:53:49.150Z,85.18
2019-05-22T07:54:49.122Z,84.32
2019-05-22T07:55:49.128Z,84.52
2019-05-22T07:56:49.114Z,84.7
2019-05-22T07:57:49.105Z,85.18
2019-05-22T07:58:49.098Z,85.71
2019-05-22T07:59:49.096Z,84.32
2019-05-22T08:00:49.097Z,84.84
2019-05-22T08:01:49.077Z,84.61
2019-05-22T08:02:49.074Z,84.84
2019-05-22T08:03:49.066Z,85.22
2019-05-22T08:04:49.062Z,84.75
2019-05-22T08:05:49.054Z,84.36
2019-05-22T08:06:49.044Z,85.13
2019-05-22T08:07:49.187Z,85.89
2019-05-22T08:08:49.032Z,85.32
2019-05-22T08:09:49.029Z,86.47
2019-05-22T08:10:49.031Z,86.66
2019-05-22T08:11:49.015Z,87.04
2019-05-22T08:12:49.006Z,87.71
2019-05-22T08:13:49.003Z,85.51
2019-05-22T08:14:48.992Z,87.62
2019-05-22T08:15:50.515Z,86.85
2019-05-22T08:16:48.979Z,86.28
2019-05-22T08:17:48.973Z,85.8
2019-05-22T08:18:48.741Z,85.8
2019-05-22T08:19:48.834Z,85.51
2019-05-22T08:20:48.733Z,86.66
2019-05-22T08:21:48.952Z,85.13
2019-05-22T08:22:48.968Z,85.22
2019-05-22T08:23:48.938Z,86.76
2019-05-22T08:24:48.935Z,85.51
2019-05-22T08:25:48.926Z,85.03
2019-05-22T08:26:57.123Z,87.23
2019-05-22T08:27:48.908Z,87.33
2019-05-22T08:28:48.911Z,88.67
2019-05-22T08:29:48.902Z,88.86
2019-05-22T08:30:48.894Z,88
2019-05-22T08:31:48.890Z,87.71
2019-05-22T08:32:48.890Z,90.2
2019-05-22T08:33:48.876Z,88.29
2019-05-22T08:34:48.870Z,87.9
2019-05-22T08:35:48.862Z,88
2019-05-22T08:36:48.858Z,87.23
2019-05-22T08:37:48.849Z,87.9
2019-05-22T08:38:48.859Z,87.71
2019-05-22T08:39:48.836Z,87.04
2019-05-22T08:40:48.837Z,87.81
2019-05-22T08:41:48.824Z,87.33
2019-05-22T08:42:48.825Z,86.8
2019-05-22T08:44:17.973Z,87.85
2019-05-22T08:44:48.566Z,88.33
2019-05-22T08:45:48.802Z,87.66
2019-05-22T08:46:48.974Z,90.34
2019-05-22T08:47:48.799Z,90.91
2019-05-22T08:48:51.344Z,89
2019-05-22T08:49:48.777Z,89.09
2019-05-22T08:50:48.773Z,89.19
2019-05-22T08:51:48.764Z,89
2019-05-22T08:52:48.762Z,88.33
2019-05-22T08:53:50.946Z,87.37
2019-05-22T08:54:48.755Z,87.47
2019-05-22T08:55:48.744Z,90.34
2019-05-22T08:56:48.744Z,88.71
2019-05-22T08:57:48.774Z,88.71
2019-05-22T08:58:48.738Z,88.62
2019-05-22T08:59:48.714Z,88.9
2019-05-22T09:00:48.817Z,89.67
2019-05-22T09:01:48.703Z,91.3
2019-05-22T09:02:48.698Z,90.34
2019-05-22T09:03:48.695Z,89.58
2019-05-22T09:04:48.684Z,89.48
2019-05-22T09:05:48.845Z,91.11
2019-05-22T09:06:48.678Z,91.3
2019-05-22T09:07:48.676Z,89.67
2019-05-22T09:08:48.664Z,90.53
2019-05-22T09:09:48.656Z,88.81
2019-05-22T09:10:48.655Z,88.71
2019-05-22T09:11:48.660Z,89.48
2019-05-22T09:12:48.645Z,89.76
2019-05-22T09:13:48.637Z,91.39
2019-05-22T09:14:48.626Z,89.48
2019-05-22T09:15:48.620Z,91.49
2019-05-22T09:16:48.673Z,91.77
2019-05-22T09:17:48.609Z,89.67
2019-05-22T09:18:48.710Z,89.29
2019-05-22T09:19:48.603Z,89.58
2019-05-22T09:20:51.998Z,90.63
2019-05-22T09:21:48.584Z,89.76
2019-05-22T09:22:48.611Z,89
2019-05-22T09:23:48.616Z,89.38
2019-05-22T09:24:48.658Z,91.15
2019-05-22T09:25:48.562Z,92.21
2019-05-22T09:26:48.557Z,91.05
2019-05-22T09:27:48.568Z,91.11
2019-05-22T09:28:48.556Z,90.24
2019-05-22T09:29:48.544Z,89.23
2019-05-22T09:30:48.535Z,90.39
2019-05-22T09:31:48.548Z,89.43
2019-05-22T09:32:50.092Z,90.86
2019-05-22T09:33:48.552Z,89.23
2019-05-22T09:34:48.549Z,90.39
2019-05-22T09:35:48.504Z,89.33
2019-05-22T09:36:48.499Z,89.72
2019-05-22T09:37:48.496Z,89.23
2019-05-22T09:38:51.781Z,89.62
2019-05-22T09:39:48.482Z,91.05
2019-05-22T09:40:48.476Z,90.58
2019-05-22T09:41:48.476Z,89.81
2019-05-22T09:42:48.476Z,92.97
2019-05-22T09:43:48.458Z,90.77
2019-05-22T09:44:48.465Z,91.44
2019-05-22T09:45:48.461Z,89.72
2019-05-22T09:46:48.322Z,90.58
2019-05-22T09:47:48.541Z,89.81
2019-05-22T09:48:48.489Z,91.34
2019-05-22T09:49:48.533Z,90.39
2019-05-22T09:50:48.464Z,92.78
2019-05-22T09:51:48.415Z,92.78
2019-05-22T09:52:59.498Z,91.53
2019-05-22T09:53:48.405Z,90.58
2019-05-22T09:54:48.398Z,93.07
2019-05-22T09:55:49.933Z,91.63
2019-05-22T09:56:48.387Z,90.29
2019-05-22T09:57:48.383Z,93.45
2019-05-22T09:58:48.376Z,92.06
2019-05-22T09:59:48.374Z,91.53
2019-05-22T10:00:48.368Z,90.43
2019-05-22T10:01:48.363Z,90.72
2019-05-22T10:02:48.357Z,92.82
2019-05-22T10:03:48.351Z,90.81
2019-05-22T10:04:48.347Z,92.63
2019-05-22T10:05:48.621Z,91.58
2019-05-22T10:06:48.331Z,90.43
2019-05-22T10:08:03.002Z,92.82
2019-05-22T10:08:48.322Z,92.35
2019-05-22T10:09:48.320Z,91.49
2019-05-22T10:10:48.312Z,91.58
2019-05-22T10:11:48.309Z,95.98
2019-05-22T10:12:48.312Z,91.67
2019-05-22T10:13:48.634Z,92.15
2019-05-22T10:14:48.435Z,92.06
2019-05-22T10:15:48.290Z,93.3
2019-05-22T10:16:48.283Z,92.01
2019-05-22T10:17:48.277Z,93.59
2019-05-22T10:18:52.214Z,91.96
2019-05-22T10:19:48.287Z,91.43
2019-05-22T10:20:48.269Z,91.24
2019-05-22T10:21:48.254Z,90.95
2019-05-22T10:22:48.273Z,92.1
2019-05-22T10:23:48.004Z,90.95
2019-05-22T10:24:52.523Z,91.43
2019-05-22T10:25:48.244Z,90.76
2019-05-22T10:26:48.240Z,93.01
2019-05-22T10:27:48.238Z,91.48
2019-05-22T10:28:48.242Z,91.72
2019-05-22T10:29:48.221Z,91.53
2019-05-22T10:30:48.222Z,92.87
2019-05-22T10:31:48.204Z,92.2
2019-05-22T10:32:48.203Z,91.63
2019-05-22T10:33:51.663Z,91.63
2019-05-22T10:34:48.195Z,91.53
2019-05-22T10:35:48.190Z,92.01
2019-05-22T10:36:48.181Z,92.58
2019-05-22T10:37:48.179Z,91.82
2019-05-22T10:38:48.170Z,91.72
2019-05-22T10:39:48.168Z,91.82
2019-05-22T10:40:48.160Z,93.44
2019-05-22T10:41:48.193Z,92.1
2019-05-22T10:42:48.182Z,92.3
2019-05-22T10:43:48.143Z,92.2
2019-05-22T10:44:48.149Z,92.39
2019-05-22T10:45:48.135Z,94.02
2019-05-22T10:46:48.126Z,93.35
2019-05-22T10:47:48.128Z,92.54
2019-05-22T10:48:48.119Z,92.54
2019-05-22T10:49:48.114Z,92.35
2019-05-22T10:50:48.117Z,92.82
2019-05-22T10:51:48.100Z,92.25
2019-05-22T10:52:53.593Z,92.15
2019-05-22T10:53:48.093Z,91.96
2019-05-22T10:54:48.089Z,91.96
2019-05-22T10:55:48.079Z,91.67
2019-05-22T10:56:48.075Z,93.59
2019-05-22T10:57:48.080Z,91.77
2019-05-22T10:58:48.068Z,92.25
2019-05-22T10:59:48.090Z,92.63
2019-05-22T11:00:48.057Z,92.15
2019-05-22T11:01:48.045Z,93.78
2019-05-22T11:02:48.067Z,92.63
2019-05-22T11:03:48.047Z,91.67
2019-05-22T11:04:48.037Z,93.88
2019-05-22T11:06:03.765Z,92.15
2019-05-22T11:06:48.023Z,92.3
2019-05-22T11:07:48.231Z,93.26
2019-05-22T11:08:48.008Z,92.58
2019-05-22T11:09:48.018Z,92.21
2019-05-22T11:10:48.075Z,93.45
2019-05-22T11:11:47.995Z,92.87
2019-05-22T11:12:47.994Z,94.02
2019-05-22T11:14:02.880Z,92.97
2019-05-22T11:14:47.978Z,92.21
2019-05-22T11:15:47.973Z,92.68
2019-05-22T11:16:47.971Z,92.49
2019-05-22T11:17:47.969Z,92.21
2019-05-22T11:18:47.960Z,92.11
2019-05-22T11:19:47.945Z,92.87
2019-05-22T11:20:47.975Z,92.01
2019-05-22T11:21:47.937Z,91.92
2019-05-22T11:22:47.934Z,92.49
2019-05-22T11:23:54.501Z,92.11
2019-05-22T11:24:47.918Z,91.82
2019-05-22T11:25:47.939Z,92.11
2019-05-22T11:26:47.908Z,92.11
2019-05-22T11:27:47.903Z,93.26
2019-05-22T11:28:47.895Z,91.92
2019-05-22T11:29:47.893Z,92.11
2019-05-22T11:30:47.637Z,92.01
2019-05-22T11:31:47.876Z,91.82
2019-05-22T11:32:47.894Z,92.3
2019-05-22T11:33:47.872Z,94.5
2019-05-22T11:34:47.869Z,92.49
2019-05-22T11:35:47.863Z,92.21
2019-05-22T11:36:47.848Z,94.5
2019-05-22T11:37:47.856Z,93.26
2019-05-22T11:38:47.836Z,92.4
2019-05-22T11:39:47.606Z,94.69
2019-05-22T11:40:47.825Z,93.93
2019-05-22T11:41:47.603Z,92.58
2019-05-22T11:42:47.928Z,93.45
2019-05-22T11:43:47.828Z,92.97
2019-05-22T11:44:47.805Z,92.01
2019-05-22T11:45:48.030Z,93.35
2019-05-22T11:46:47.791Z,93.74
2019-05-22T11:47:47.805Z,92.58
2019-05-22T11:48:47.779Z,92.68
2019-05-22T11:49:47.826Z,91.92
2019-05-22T11:50:47.768Z,92.01
2019-05-22T11:51:47.763Z,93.16
2019-05-22T11:52:47.758Z,92.21
2019-05-22T11:53:47.754Z,92.3
2019-05-22T11:54:47.747Z,91.92
2019-05-22T11:55:48.705Z,91.92
2019-05-22T11:56:47.732Z,92.87
2019-05-22T11:57:47.486Z,93.74
2019-05-22T11:58:47.722Z,92.49
2019-05-22T11:59:47.711Z,92.58
2019-05-22T12:00:47.715Z,92.01
2019-05-22T12:01:47.701Z,91.92
2019-05-22T12:02:47.699Z,92.3
2019-05-22T12:03:47.695Z,92.3
2019-05-22T12:04:50.855Z,92.49
2019-05-22T12:05:47.677Z,92.68
2019-05-22T12:06:47.674Z,91.63
2019-05-22T12:07:47.667Z,92.97
2019-05-22T12:08:47.725Z,92.4
2019-05-22T12:09:47.655Z,92.3
2019-05-22T12:10:47.656Z,92.3
2019-05-22T12:11:47.644Z,92.21
2019-05-22T12:12:47.706Z,93.45
2019-05-22T12:13:47.631Z,93.35
2019-05-22T12:14:47.626Z,92.4
2019-05-22T12:15:47.631Z,94.12
2019-05-22T12:16:47.612Z,92.97
2019-05-22T12:17:47.608Z,93.16
2019-05-22T12:18:47.605Z,92.49
2019-05-22T12:19:47.610Z,92.58
2019-05-22T12:20:47.599Z,92.58
2019-05-22T12:21:47.585Z,92.58
2019-05-22T12:22:47.578Z,92.21
2019-05-22T12:23:47.582Z,93.26
2019-05-22T12:24:47.568Z,93.54
2019-05-22T12:25:47.316Z,92.58
2019-05-22T12:26:47.554Z,92.3
2019-05-22T12:27:47.549Z,93.93
2019-05-22T12:28:47.544Z,93.83
2019-05-22T12:29:47.576Z,92.4
2019-05-22T12:30:47.579Z,92.78
2019-05-22T12:31:47.534Z,92.58
2019-05-22T12:32:47.538Z,92.49
2019-05-22T12:33:47.270Z,92.58
2019-05-22T12:34:49.312Z,92.58
2019-05-22T12:35:47.257Z,92.11
2019-05-22T12:36:50.887Z,92.4
2019-05-22T12:37:47.733Z,92.97
2019-05-22T12:38:47.663Z,93.74
2019-05-22T12:39:47.476Z,92.97
2019-05-22T12:40:47.235Z,92.3
2019-05-22T12:41:47.482Z,93.74
2019-05-22T12:42:47.468Z,92.97
2019-05-22T12:43:47.649Z,93.07
2019-05-22T12:44:47.453Z,96.32
2019-05-22T12:45:47.209Z,93.45
2019-05-22T12:46:47.443Z,93.45
2019-05-22T12:47:47.449Z,92.78
2019-05-22T12:48:47.254Z,93.45
2019-05-22T12:49:47.438Z,93.26
2019-05-22T12:50:47.412Z,92.78
2019-05-22T12:51:47.409Z,92.68
2019-05-22T12:52:47.408Z,93.54
2019-05-22T12:53:47.398Z,93.16
2019-05-22T12:54:52.915Z,92.58
2019-05-22T12:55:47.148Z,92.68
2019-05-22T12:56:47.401Z,93.83
2019-05-22T12:57:47.372Z,92.87